createdAt,value
2022-10-13T00:01:39.549Z,7.00
2022-10-13T00:04:09.699Z,7.85
2022-10-13T00:06:39.753Z,8.20
2022-10-13T00:09:09.944Z,8.52
2022-10-13T00:11:40.084Z,9.68
2022-10-13T00:14:10.234Z,8.70
2022-10-13T00:16:40.373Z,8.13
2022-10-13T00:19:14.839Z,7.53
2022-10-13T00:21:45.271Z,6.55
2022-10-13T00:24:15.483Z,7.05
2022-10-13T00:26:45.649Z,6.88
2022-10-13T00:29:15.823Z,7.88
2022-10-13T00:31:46.091Z,5.72
2022-10-13T00:34:16.210Z,5.95
2022-10-13T00:36:46.506Z,4.78
2022-10-13T00:39:16.652Z,5.28
2022-10-13T00:41:46.828Z,4.60
2022-10-13T00:44:54.304Z,4.72
2022-10-13T00:47:26.536Z,4.85
2022-10-13T00:49:57.267Z,4.47
2022-10-13T00:52:28.346Z,4.70
2022-10-13T00:54:59.903Z,3.97
2022-10-13T00:57:30.209Z,5.25
2022-10-13T01:00:03.002Z,4.93
2022-10-13T01:02:38.051Z,4.82
2022-10-13T01:05:08.798Z,6.22
2022-10-13T01:07:39.012Z,5.22
2022-10-13T01:10:09.186Z,5.00
2022-10-13T01:13:09.265Z,5.05
2022-10-13T01:15:51.544Z,4.50
2022-10-13T01:18:43.082Z,4.82
2022-10-13T01:21:36.490Z,4.40
2022-10-13T01:24:21.914Z,5.22
2022-10-13T01:27:06.868Z,4.57
2022-10-13T01:30:08.916Z,4.72
2022-10-13T01:33:17.941Z,4.57
2022-10-13T01:36:06.637Z,4.32
2022-10-13T01:38:43.127Z,4.28
2022-10-13T01:41:37.454Z,4.55
2022-10-13T01:44:29.486Z,5.30
2022-10-13T01:47:01.492Z,4.15
2022-10-13T01:49:37.613Z,4.53
2022-10-13T01:52:15.644Z,4.53
2022-10-13T01:54:51.461Z,4.40
2022-10-13T01:57:47.641Z,5.15
2022-10-13T02:00:21.336Z,4.97
2022-10-13T02:03:26.809Z,4.88
2022-10-13T02:06:18.289Z,5.10
2022-10-13T02:08:58.310Z,5.55
2022-10-13T02:11:28.705Z,5.40
2022-10-13T02:14:23.169Z,5.63
2022-10-13T02:16:56.217Z,4.95
2022-10-13T02:19:28.360Z,5.13
2022-10-13T02:21:59.071Z,6.15
2022-10-13T02:24:29.369Z,5.35
2022-10-13T02:26:59.930Z,6.05
2022-10-13T02:29:30.039Z,5.38
2022-10-13T02:32:00.420Z,5.82
2022-10-13T02:34:30.841Z,5.85
2022-10-13T02:37:00.966Z,5.80
2022-10-13T02:39:31.033Z,6.10
2022-10-13T02:42:01.147Z,6.13
2022-10-13T02:44:31.250Z,5.45
2022-10-13T02:47:01.401Z,5.15
2022-10-13T02:49:31.649Z,5.68
2022-10-13T02:52:01.920Z,5.80
2022-10-13T02:54:32.054Z,6.45
2022-10-13T02:57:02.131Z,6.07
2022-10-13T02:59:32.281Z,6.40
2022-10-13T03:02:02.657Z,5.90
2022-10-13T03:04:35.028Z,6.07
2022-10-13T03:07:05.260Z,5.93
2022-10-13T03:09:35.513Z,6.03
2022-10-13T03:12:06.015Z,5.75
2022-10-13T03:14:36.179Z,5.43
2022-10-13T03:17:08.825Z,5.43
2022-10-13T03:19:42.637Z,5.60
2022-10-13T03:22:15.606Z,5.97
2022-10-13T03:24:46.229Z,5.57
2022-10-13T03:27:16.389Z,6.03
2022-10-13T03:29:46.635Z,5.35
2022-10-13T03:32:17.426Z,6.55
2022-10-13T03:34:47.811Z,5.25
2022-10-13T03:37:18.240Z,4.97
2022-10-13T03:39:48.468Z,5.63
2022-10-13T03:42:18.835Z,5.40
2022-10-13T03:44:53.687Z,5.75
2022-10-13T03:47:26.141Z,4.57
2022-10-13T03:49:56.395Z,5.35
2022-10-13T03:52:26.489Z,5.30
2022-10-13T03:54:56.645Z,4.97
2022-10-13T03:57:26.760Z,5.43
2022-10-13T03:59:57.830Z,5.32
2022-10-13T04:02:28.031Z,4.68
2022-10-13T04:04:58.121Z,5.50
2022-10-13T04:07:28.292Z,4.90
2022-10-13T04:09:59.553Z,5.00
2022-10-13T04:12:29.627Z,5.63
2022-10-13T04:14:59.750Z,5.45
2022-10-13T04:17:29.847Z,5.55
2022-10-13T04:19:59.987Z,4.78
2022-10-13T04:22:30.037Z,6.20
2022-10-13T04:25:00.231Z,6.05
2022-10-13T04:27:31.006Z,5.72
2022-10-13T04:30:01.257Z,5.53
2022-10-13T04:32:31.425Z,6.43
2022-10-13T04:35:01.607Z,5.47
2022-10-13T04:37:31.670Z,6.80
2022-10-13T04:40:01.861Z,6.82
2022-10-13T04:42:31.940Z,6.32
2022-10-13T04:45:02.159Z,6.30
2022-10-13T04:47:36.798Z,6.35
2022-10-13T04:50:07.761Z,6.43
2022-10-13T04:52:37.919Z,5.55
2022-10-13T04:55:09.295Z,5.70
2022-10-13T04:57:39.393Z,5.18
2022-10-13T05:00:10.883Z,5.05
2022-10-13T05:02:41.030Z,4.57
2022-10-13T05:05:11.335Z,5.30
2022-10-13T05:07:41.461Z,4.45
2022-10-13T05:10:11.665Z,4.82
2022-10-13T05:12:41.822Z,3.85
2022-10-13T05:15:11.922Z,4.00
2022-10-13T05:17:42.088Z,4.95
2022-10-13T05:20:12.712Z,4.40
2022-10-13T05:22:43.224Z,5.85
2022-10-13T05:25:13.355Z,5.30
2022-10-13T05:27:45.389Z,6.50
2022-10-13T05:30:15.514Z,4.60
2022-10-13T05:32:46.820Z,4.63
2022-10-13T05:35:18.356Z,5.53
2022-10-13T05:37:48.507Z,5.20
2022-10-13T05:40:22.181Z,6.28
2022-10-13T05:42:52.906Z,5.75
2022-10-13T05:45:24.502Z,5.13
2022-10-13T05:47:54.618Z,4.95
2022-10-13T05:50:24.943Z,5.40
2022-10-13T05:52:55.110Z,5.10
2022-10-13T05:55:25.270Z,4.88
2022-10-13T05:57:55.476Z,4.60
2022-10-13T06:00:25.657Z,5.50
2022-10-13T06:03:07.723Z,5.22
2022-10-13T06:05:38.526Z,5.05
2022-10-13T06:08:09.631Z,5.25
2022-10-13T06:10:40.682Z,5.78
2022-10-13T06:13:10.729Z,6.05
2022-10-13T06:15:40.929Z,6.15
2022-10-13T06:18:10.972Z,5.68
2022-10-13T06:20:41.225Z,5.22
2022-10-13T06:23:12.720Z,5.80
2022-10-13T06:25:50.325Z,6.40
2022-10-13T06:28:21.033Z,5.53
2022-10-13T06:30:56.626Z,5.45
2022-10-13T06:33:26.838Z,5.60
2022-10-13T06:36:01.073Z,5.75
2022-10-13T06:38:31.632Z,5.47
2022-10-13T06:41:03.821Z,6.05
2022-10-13T06:43:39.911Z,5.63
2022-10-13T06:46:11.318Z,5.28
2022-10-13T06:48:41.754Z,5.63
2022-10-13T06:51:12.424Z,5.25
2022-10-13T06:53:42.838Z,4.82
2022-10-13T06:56:14.362Z,5.65
2022-10-13T06:58:44.891Z,5.22
2022-10-13T07:01:15.205Z,5.15
2022-10-13T07:03:49.447Z,4.88
2022-10-13T07:06:19.649Z,5.20
2022-10-13T07:08:49.866Z,5.25
2022-10-13T07:11:20.611Z,4.80
2022-10-13T07:13:50.863Z,5.25
2022-10-13T07:16:21.063Z,4.53
2022-10-13T07:18:51.243Z,4.70
2022-10-13T07:21:21.872Z,5.35
2022-10-13T07:23:52.036Z,4.28
2022-10-13T07:26:22.629Z,5.07
2022-10-13T07:28:53.160Z,4.78
2022-10-13T07:31:23.316Z,5.75
2022-10-13T07:33:53.390Z,4.13
2022-10-13T07:36:23.541Z,4.85
2022-10-13T07:38:53.798Z,4.55
2022-10-13T07:41:24.126Z,4.50
2022-10-13T07:43:57.842Z,6.78
2022-10-13T07:46:28.077Z,4.22
2022-10-13T07:48:58.573Z,4.03
2022-10-13T07:51:28.798Z,4.40
2022-10-13T07:53:59.010Z,4.88
2022-10-13T07:56:29.215Z,5.05
2022-10-13T07:58:59.431Z,4.45
2022-10-13T08:01:29.528Z,5.25
2022-10-13T08:03:59.778Z,4.00
2022-10-13T08:06:30.112Z,3.78
2022-10-13T08:09:00.893Z,4.40
2022-10-13T08:11:31.994Z,4.40
2022-10-13T08:14:02.660Z,4.10
2022-10-13T08:16:33.479Z,4.35
2022-10-13T08:19:03.707Z,4.47
2022-10-13T08:21:57.011Z,4.22
2022-10-13T08:24:24.326Z,4.60
2022-10-13T08:26:54.920Z,3.60
2022-10-13T08:29:25.132Z,3.53
2022-10-13T08:31:55.691Z,3.22
2022-10-13T08:34:26.138Z,3.08
2022-10-13T08:36:57.610Z,3.78
2022-10-13T08:39:28.207Z,2.67
2022-10-13T08:41:59.021Z,3.22
2022-10-13T08:47:40.599Z,2.10
2022-10-13T08:50:23.415Z,3.00
2022-10-13T08:53:07.930Z,3.20
2022-10-13T08:55:43.022Z,2.50
2022-10-13T08:58:20.053Z,2.80
2022-10-13T09:01:09.379Z,2.92
2022-10-13T09:03:53.051Z,3.10
2022-10-13T09:06:29.464Z,2.75
2022-10-13T09:09:02.214Z,1.85
2022-10-13T09:11:36.037Z,2.33
2022-10-13T09:14:31.507Z,2.35
2022-10-13T09:17:22.529Z,1.67
2022-10-13T09:20:33.975Z,2.38
2022-10-13T09:23:06.973Z,1.90
2022-10-13T09:25:43.573Z,2.35
2022-10-13T09:31:09.154Z,1.83
2022-10-13T09:33:42.102Z,1.77
2022-10-13T09:36:15.394Z,2.65
2022-10-13T09:39:15.508Z,2.63
2022-10-13T09:41:45.791Z,2.83
2022-10-13T09:44:28.964Z,2.88
2022-10-13T09:47:02.945Z,1.98
2022-10-13T09:49:40.221Z,2.47
2022-10-13T09:52:13.455Z,3.22
2022-10-13T09:54:56.452Z,2.47
2022-10-13T09:57:41.966Z,4.43
2022-10-13T10:00:22.827Z,2.95
2022-10-13T10:02:55.828Z,2.83
2022-10-13T10:05:33.468Z,2.72
2022-10-13T10:08:14.151Z,2.85
2022-10-13T10:10:44.990Z,2.90
2022-10-13T10:13:15.857Z,5.47
2022-10-13T10:16:06.574Z,2.88
2022-10-13T10:18:39.253Z,2.03
2022-10-13T10:21:23.521Z,2.28
2022-10-13T10:24:19.506Z,3.08
2022-10-13T10:27:22.903Z,2.45
2022-10-13T10:30:06.113Z,3.63
2022-10-13T10:32:43.425Z,2.38
2022-10-13T10:35:24.792Z,2.13
2022-10-13T10:38:07.231Z,1.98
2022-10-13T10:40:49.601Z,2.40
2022-10-13T10:43:34.966Z,2.72
2022-10-13T10:46:19.534Z,2.25
2022-10-13T10:48:54.181Z,2.03
2022-10-13T10:51:31.265Z,2.17
2022-10-13T10:54:08.442Z,2.03
2022-10-13T10:56:49.377Z,2.15
2022-10-13T10:59:29.457Z,2.35
2022-10-13T11:02:08.396Z,1.90
2022-10-13T11:04:44.340Z,1.95
2022-10-13T11:07:34.340Z,1.80
2022-10-13T11:10:19.162Z,2.00
2022-10-13T11:13:09.152Z,1.70
2022-10-13T11:15:40.704Z,2.22
2022-10-13T11:18:48.415Z,2.10
2022-10-13T11:21:18.585Z,1.73
2022-10-13T11:23:50.329Z,2.13
2022-10-13T11:26:26.436Z,2.28
2022-10-13T11:28:57.182Z,1.75
2022-10-13T11:31:35.201Z,1.55
2022-10-13T11:34:26.743Z,1.88
2022-10-13T11:36:58.680Z,2.40
2022-10-13T11:39:37.557Z,2.00
2022-10-13T11:42:35.355Z,2.20
2022-10-13T11:45:36.820Z,2.53
2022-10-13T11:48:38.913Z,2.10
2022-10-13T11:51:16.420Z,2.15
2022-10-13T11:54:08.664Z,2.30
2022-10-13T11:56:49.046Z,2.60
2022-10-13T11:59:28.195Z,2.88
2022-10-13T12:02:19.425Z,3.17
2022-10-13T12:05:21.511Z,3.00
2022-10-13T12:07:54.958Z,3.35
2022-10-13T12:10:38.085Z,3.60
2022-10-13T12:13:08.810Z,3.33
2022-10-13T12:15:43.489Z,4.82
2022-10-13T12:18:27.138Z,4.05
2022-10-13T12:20:59.313Z,3.58
2022-10-13T12:23:32.127Z,3.72
2022-10-13T12:26:02.690Z,3.92
2022-10-13T12:28:50.684Z,5.15
2022-10-13T12:31:28.593Z,4.10
2022-10-13T12:34:02.984Z,3.75
2022-10-13T12:36:35.532Z,3.70
2022-10-13T12:39:11.063Z,4.40
2022-10-13T12:41:43.826Z,3.42
2022-10-13T12:44:20.094Z,4.00
2022-10-13T12:46:53.803Z,3.53
2022-10-13T12:49:27.429Z,4.03
2022-10-13T12:52:09.471Z,3.70
2022-10-13T12:54:47.538Z,3.53
2022-10-13T12:57:36.311Z,3.53
2022-10-13T13:00:27.714Z,3.72
2022-10-13T13:03:00.411Z,3.95
2022-10-13T13:05:33.430Z,3.78
2022-10-13T13:08:06.660Z,3.20
2022-10-13T13:10:36.815Z,3.65
2022-10-13T13:13:14.575Z,3.38
2022-10-13T13:15:44.764Z,3.40
2022-10-13T13:18:26.780Z,2.92
2022-10-13T13:20:57.253Z,3.45
2022-10-13T13:23:33.864Z,3.33
2022-10-13T13:26:15.416Z,3.83
2022-10-13T13:28:48.591Z,4.38
2022-10-13T13:31:21.376Z,3.70
2022-10-13T13:33:53.768Z,3.38
2022-10-13T13:36:25.600Z,3.90
2022-10-13T13:38:56.086Z,3.38
2022-10-13T13:41:28.102Z,4.40
2022-10-13T13:43:58.227Z,4.13
2022-10-13T13:46:29.364Z,3.90
2022-10-13T13:48:59.440Z,5.65
2022-10-13T13:51:29.945Z,3.78
2022-10-13T13:54:00.164Z,3.90
2022-10-13T13:56:30.343Z,4.10
2022-10-13T13:59:00.538Z,3.70
2022-10-13T14:01:32.522Z,3.42
2022-10-13T14:04:03.274Z,3.15
2022-10-13T14:06:33.449Z,3.25
2022-10-13T14:09:05.138Z,3.45
2022-10-13T14:11:35.314Z,3.90
2022-10-13T14:14:05.488Z,3.70
2022-10-13T14:16:35.643Z,3.35
2022-10-13T14:19:06.020Z,3.58
2022-10-13T14:21:36.603Z,3.33
2022-10-13T14:24:07.225Z,3.72
2022-10-13T14:26:37.423Z,4.63
2022-10-13T14:29:07.686Z,3.60
2022-10-13T14:31:41.785Z,4.60
2022-10-13T14:34:12.506Z,3.47
2022-10-13T14:36:42.676Z,4.32
2022-10-13T14:39:14.401Z,3.97
2022-10-13T14:41:44.922Z,3.72
2022-10-13T14:44:16.393Z,4.45
2022-10-13T14:46:46.641Z,4.15
2022-10-13T14:49:18.577Z,3.85
2022-10-13T14:51:49.043Z,4.22
2022-10-13T14:54:20.142Z,3.80
2022-10-13T14:56:51.651Z,4.00
2022-10-13T14:59:22.198Z,4.80
2022-10-13T15:01:52.812Z,4.65
2022-10-13T15:04:24.418Z,3.80
2022-10-13T15:06:55.916Z,3.97
2022-10-13T15:09:44.847Z,4.07
2022-10-13T15:12:22.317Z,4.55
2022-10-13T15:14:52.889Z,4.38
2022-10-13T15:17:23.081Z,4.15
2022-10-13T15:19:54.825Z,3.95
2022-10-13T15:22:26.798Z,4.10
2022-10-13T15:24:57.316Z,3.70
2022-10-13T15:27:28.433Z,4.55
2022-10-13T15:29:59.298Z,4.72
2022-10-13T15:32:29.539Z,4.75
2022-10-13T15:35:00.121Z,4.93
2022-10-13T15:37:30.941Z,5.72
2022-10-13T15:40:03.190Z,6.65
2022-10-13T15:42:33.478Z,4.93
2022-10-13T15:45:09.964Z,11.77
2022-10-13T15:47:41.583Z,6.60
2022-10-13T15:50:13.362Z,5.80
2022-10-13T15:52:44.839Z,6.10
2022-10-13T15:55:15.459Z,5.50
2022-10-13T15:57:46.193Z,5.60
2022-10-13T16:00:19.410Z,4.68
2022-10-13T16:02:52.226Z,4.30
2022-10-13T16:05:23.569Z,4.78
2022-10-13T16:07:53.742Z,4.63
2022-10-13T16:10:24.329Z,5.43
2022-10-13T16:12:54.423Z,4.15
2022-10-13T16:15:24.588Z,3.97
2022-10-13T16:17:54.950Z,3.97
2022-10-13T16:20:25.182Z,4.75
2022-10-13T16:22:55.334Z,4.97
2022-10-13T16:25:25.547Z,6.90
2022-10-13T16:27:55.651Z,6.60
2022-10-13T16:30:27.022Z,6.38
2022-10-13T16:32:58.222Z,6.30
2022-10-13T16:35:28.366Z,6.00
2022-10-13T16:38:04.766Z,6.60
2022-10-13T16:40:42.089Z,6.72
2022-10-13T16:43:14.563Z,8.10
2022-10-13T16:45:59.912Z,8.18
2022-10-13T16:48:32.523Z,7.63
2022-10-13T16:51:08.291Z,7.43
2022-10-13T16:53:38.943Z,6.70
2022-10-13T16:56:09.399Z,7.47
2022-10-13T16:58:45.058Z,6.25
2022-10-13T17:01:15.565Z,6.57
2022-10-13T17:03:47.014Z,5.85
2022-10-13T17:06:18.627Z,6.75
2022-10-13T17:08:48.877Z,6.93
2022-10-13T17:11:24.872Z,6.22
2022-10-13T17:13:56.814Z,7.88
2022-10-13T17:16:27.829Z,10.82
2022-10-13T17:18:58.233Z,10.60
2022-10-13T17:21:28.482Z,9.60
2022-10-13T17:23:58.609Z,8.20
2022-10-13T17:26:28.769Z,8.60
2022-10-13T17:28:59.016Z,6.97
2022-10-13T17:31:29.289Z,6.60
2022-10-13T17:34:00.211Z,6.28
2022-10-13T17:36:34.617Z,6.10
2022-10-13T17:39:07.683Z,7.07
2022-10-13T17:41:37.851Z,7.38
2022-10-13T17:44:08.021Z,8.25
2022-10-13T17:46:39.936Z,7.03
2022-10-13T17:49:12.261Z,7.47
2022-10-13T17:51:44.070Z,6.00
2022-10-13T17:54:16.386Z,10.30
2022-10-13T17:56:48.074Z,8.38
2022-10-13T17:59:18.613Z,6.65
2022-10-13T18:01:48.892Z,6.05
2022-10-13T18:04:19.918Z,6.15
2022-10-13T18:06:50.087Z,6.20
2022-10-13T18:09:23.411Z,5.70
2022-10-13T18:11:54.843Z,7.68
2022-10-13T18:14:25.320Z,6.78
2022-10-13T18:16:56.485Z,7.53
2022-10-13T18:19:26.810Z,6.97
2022-10-13T18:21:56.939Z,7.15
2022-10-13T18:24:27.223Z,5.97
2022-10-13T18:26:57.490Z,6.50
2022-10-13T18:29:27.670Z,7.85
2022-10-13T18:31:57.828Z,6.90
2022-10-13T18:34:28.055Z,8.65
2022-10-13T18:36:58.365Z,8.10
2022-10-13T18:39:29.429Z,9.00
2022-10-13T18:41:59.612Z,7.60
2022-10-13T18:44:29.882Z,7.80
2022-10-13T18:47:00.139Z,6.50
2022-10-13T18:49:33.405Z,6.32
2022-10-13T18:52:03.707Z,6.40
2022-10-13T18:54:33.925Z,7.15
2022-10-13T18:57:04.139Z,7.25
2022-10-13T18:59:38.785Z,6.93
2022-10-13T19:02:13.818Z,6.95
2022-10-13T19:04:44.338Z,7.25
2022-10-13T19:07:14.474Z,7.50
2022-10-13T19:09:45.824Z,7.22
2022-10-13T19:12:15.986Z,7.45
2022-10-13T19:14:46.199Z,7.82
2022-10-13T19:17:16.443Z,7.68
2022-10-13T19:19:46.684Z,8.65
2022-10-13T19:22:16.950Z,9.60
2022-10-13T19:24:47.056Z,8.15
2022-10-13T19:27:17.180Z,9.30
2022-10-13T19:29:47.672Z,10.85
2022-10-13T19:32:18.211Z,10.90
2022-10-13T19:34:48.854Z,11.82
2022-10-13T19:37:19.416Z,15.07
2022-10-13T19:39:50.191Z,13.55
2022-10-13T19:42:21.661Z,10.57
2022-10-13T19:44:52.159Z,10.52
2022-10-13T19:47:23.944Z,10.48
2022-10-13T19:49:54.552Z,10.70
2022-10-13T19:52:26.269Z,8.88
2022-10-13T19:54:57.118Z,9.15
2022-10-13T19:57:27.484Z,9.02
2022-10-13T19:59:57.615Z,9.20
2022-10-13T20:02:27.823Z,7.85
2022-10-13T20:04:57.983Z,6.88
2022-10-13T20:07:28.149Z,8.45
2022-10-13T20:09:58.333Z,6.13
2022-10-13T20:12:28.422Z,7.57
2022-10-13T20:14:58.594Z,6.63
2022-10-13T20:17:28.911Z,7.18
2022-10-13T20:19:59.823Z,7.07
2022-10-13T20:22:30.010Z,5.93
2022-10-13T20:25:00.487Z,6.40
2022-10-13T20:27:30.859Z,6.68
2022-10-13T20:30:01.242Z,6.90
2022-10-13T20:32:31.298Z,7.95
2022-10-13T20:35:01.451Z,6.97
2022-10-13T20:37:31.614Z,7.70
2022-10-13T20:40:01.906Z,7.90
2022-10-13T20:42:32.046Z,7.13
2022-10-13T20:45:02.100Z,7.43
2022-10-13T20:47:32.503Z,6.78
2022-10-13T20:50:03.997Z,6.53
2022-10-13T20:52:34.945Z,7.15
2022-10-13T20:55:05.231Z,6.82
2022-10-13T20:57:35.466Z,7.10
2022-10-13T21:00:06.378Z,6.75
2022-10-13T21:02:36.906Z,6.85
2022-10-13T21:05:07.358Z,8.02
2022-10-13T21:07:37.584Z,6.50
2022-10-13T21:10:08.785Z,6.60
2022-10-13T21:12:38.998Z,6.80
2022-10-13T21:15:09.820Z,6.85
2022-10-13T21:17:42.415Z,6.88
2022-10-13T21:20:12.786Z,6.53
2022-10-13T21:22:43.238Z,6.75
2022-10-13T21:25:13.837Z,6.47
2022-10-13T21:27:44.043Z,5.95
2022-10-13T21:30:14.334Z,7.35
2022-10-13T21:32:44.885Z,6.18
2022-10-13T21:35:15.390Z,6.30
2022-10-13T21:37:45.732Z,6.95
2022-10-13T21:40:16.053Z,5.72
2022-10-13T21:42:46.188Z,6.25
2022-10-13T21:45:16.405Z,6.15
2022-10-13T21:47:46.681Z,5.78
2022-10-13T21:50:16.838Z,6.97
2022-10-13T21:52:46.942Z,6.03
2022-10-13T21:55:17.175Z,6.47
2022-10-13T21:57:47.309Z,6.55
2022-10-13T22:00:17.511Z,5.97
2022-10-13T22:02:47.603Z,6.53
2022-10-13T22:05:17.822Z,6.70
2022-10-13T22:07:48.001Z,6.57
2022-10-13T22:10:21.751Z,7.40
2022-10-13T22:12:51.853Z,7.38
2022-10-13T22:15:22.047Z,6.47
2022-10-13T22:17:52.287Z,7.15
2022-10-13T22:20:22.662Z,7.03
2022-10-13T22:22:52.778Z,7.47
2022-10-13T22:25:22.890Z,7.63
2022-10-13T22:27:53.222Z,8.05
2022-10-13T22:30:23.357Z,7.03
2022-10-13T22:32:53.470Z,8.50
2022-10-13T22:35:23.641Z,8.05
2022-10-13T22:37:53.786Z,7.45
2022-10-13T22:40:23.909Z,7.93
2022-10-13T22:42:54.018Z,7.93
2022-10-13T22:45:24.435Z,7.40
2022-10-13T22:47:54.586Z,8.27
2022-10-13T22:50:24.715Z,7.68
2022-10-13T22:52:54.809Z,7.95
2022-10-13T22:55:24.902Z,6.60
2022-10-13T22:57:55.289Z,7.82
2022-10-13T23:00:25.342Z,7.38
2022-10-13T23:02:55.504Z,6.65
2022-10-13T23:05:25.597Z,7.28
2022-10-13T23:07:56.337Z,7.65
2022-10-13T23:10:26.530Z,6.80
2022-10-13T23:12:56.733Z,7.88
2022-10-13T23:15:26.829Z,6.47
2022-10-13T23:17:56.946Z,7.32
2022-10-13T23:20:27.098Z,7.03
2022-10-13T23:22:57.285Z,6.78
2022-10-13T23:25:27.433Z,6.57
2022-10-13T23:27:58.175Z,7.30
2022-10-13T23:30:28.388Z,7.15
2022-10-13T23:32:58.438Z,6.60
2022-10-13T23:35:28.754Z,6.65
2022-10-13T23:37:58.924Z,6.35
2022-10-13T23:40:28.990Z,6.88
2022-10-13T23:42:59.241Z,7.03
2022-10-13T23:45:29.337Z,6.30
2022-10-13T23:47:59.483Z,6.38
2022-10-13T23:50:29.639Z,7.15
2022-10-13T23:52:59.798Z,6.93
2022-10-13T23:55:30.409Z,6.68
2022-10-13T23:58:00.508Z,6.50
